Time;durP1;ratioP1;P1;durP2;ratioP2;P2;SDS_P1;SDS_P2;PMS_P1;PMS_P2;Temp;Humidity;BMP_temperature;BMP_pressure;BME280_temperature;BME280_humidity;BME280_pressure;Samples;Min_cycle;Max_cycle;Signal;HPM_P1;HPM_P2
2023/05/25 00:02:23;;;;;;;9.23;4.00;;;8.90;99.90;;;;;;5064976;28;20108;-62
2023/05/25 00:04:49;;;;;;;7.35;3.85;;;8.80;99.90;;;;;;5054187;28;20537;-63
2023/05/25 00:07:15;;;;;;;9.48;4.03;;;8.70;99.90;;;;;;5053934;28;20021;-62
2023/05/25 00:09:43;;;;;;;10.00;4.35;;;8.70;99.90;;;;;;5054639;28;20021;-62
2023/05/25 00:12:09;;;;;;;10.15;4.15;;;8.70;99.90;;;;;;5053338;28;20458;-62
2023/05/25 00:14:35;;;;;;;10.50;4.63;;;8.70;99.90;;;;;;5053924;28;20757;-66
2023/05/25 00:17:02;;;;;;;8.73;3.80;;;8.60;99.90;;;;;;5054373;28;20076;-64
2023/05/25 00:19:31;;;;;;;10.68;4.40;;;8.60;99.90;;;;;;5064374;28;20044;-70
2023/05/25 00:22:00;;;;;;;10.25;4.13;;;8.50;99.90;;;;;;5070348;28;20021;-63
2023/05/25 00:24:27;;;;;;;9.32;3.67;;;8.50;99.90;;;;;;5054365;28;20389;-65
2023/05/25 00:26:52;;;;;;;7.82;3.97;;;8.40;99.90;;;;;;5057104;28;20028;-63
2023/05/25 00:29:18;;;;;;;6.20;3.30;;;8.30;99.90;;;;;;5063835;28;20462;-63
2023/05/25 00:31:44;;;;;;;6.60;3.45;;;8.20;99.90;;;;;;5059536;28;20406;-65
2023/05/25 00:34:09;;;;;;;5.57;3.38;;;8.10;99.90;;;;;;5073939;28;20051;-62
2023/05/25 00:36:35;;;;;;;9.20;3.97;;;8.00;99.90;;;;;;5073065;28;20047;-65
2023/05/25 00:39:01;;;;;;;6.53;3.63;;;8.00;99.90;;;;;;5066132;28;20119;-62
2023/05/25 00:41:27;;;;;;;8.48;3.85;;;8.00;99.90;;;;;;5054398;28;20159;-63
2023/05/25 00:43:52;;;;;;;8.75;4.05;;;8.00;99.90;;;;;;5060335;28;20074;-66
2023/05/25 00:46:18;;;;;;;7.25;4.07;;;8.00;99.90;;;;;;5073283;28;20457;-62
2023/05/25 00:48:44;;;;;;;8.88;4.18;;;7.90;99.90;;;;;;5073769;28;20032;-62
2023/05/25 00:51:12;;;;;;;8.35;4.07;;;7.90;99.90;;;;;;5072959;28;20024;-62
2023/05/25 00:53:38;;;;;;;8.02;4.40;;;7.90;99.90;;;;;;5062241;28;20454;-70
2023/05/25 00:56:16;;;;;;;10.40;4.07;;;7.80;99.90;;;;;;5042729;28;20115;-64
2023/05/25 00:58:45;;;;;;;7.72;4.47;;;7.90;99.90;;;;;;5072631;28;20135;-65
2023/05/25 01:01:14;;;;;;;7.55;3.90;;;7.90;99.90;;;;;;5073286;28;20138;-73
2023/05/25 01:03:44;;;;;;;6.85;3.65;;;7.90;99.90;;;;;;5072716;28;20033;-71
2023/05/25 01:06:13;;;;;;;8.50;4.38;;;7.80;99.90;;;;;;5073432;28;20016;-68
2023/05/25 01:08:42;;;;;;;7.25;4.20;;;7.80;99.90;;;;;;5073448;28;20496;-73
2023/05/25 01:11:10;;;;;;;8.48;4.22;;;7.70;99.90;;;;;;5057546;28;20040;-72
2023/05/25 01:13:37;;;;;;;8.55;4.20;;;7.70;99.90;;;;;;5053364;28;20070;-72
2023/05/25 01:16:07;;;;;;;8.10;4.13;;;7.70;99.90;;;;;;5053366;28;20021;-73
2023/05/25 01:18:33;;;;;;;8.90;3.83;;;7.60;99.90;;;;;;5052725;28;20408;-73
2023/05/25 01:21:11;;;;;;;7.97;3.65;;;7.60;99.90;;;;;;5053415;28;20530;-73
2023/05/25 01:23:45;;;;;;;10.40;4.47;;;7.60;99.90;;;;;;5062731;28;20039;-72
2023/05/25 01:26:15;;;;;;;7.85;4.47;;;7.60;99.90;;;;;;5052976;28;20024;-73
2023/05/25 01:28:49;;;;;;;9.63;4.30;;;7.60;99.90;;;;;;5058183;28;20085;-74
2023/05/25 01:31:15;;;;;;;8.38;4.50;;;7.50;99.90;;;;;;5073361;28;20049;-73
2023/05/25 01:33:43;;;;;;;9.00;4.45;;;7.50;99.90;;;;;;5054987;28;20016;-73
2023/05/25 01:36:09;;;;;;;8.20;4.40;;;7.50;99.90;;;;;;5054605;28;20021;-70
2023/05/25 01:38:36;;;;;;;10.02;5.03;;;7.50;99.90;;;;;;5048842;28;20075;-72
2023/05/25 01:41:01;;;;;;;10.07;4.45;;;7.40;99.90;;;;;;5061595;28;20032;-68
2023/05/25 01:43:27;;;;;;;11.55;4.45;;;7.40;99.90;;;;;;5055109;28;20033;-73
2023/05/25 01:45:58;;;;;;;8.60;4.40;;;7.40;99.90;;;;;;5054627;28;20478;-73
2023/05/25 01:48:41;;;;;;;9.55;4.57;;;7.40;99.90;;;;;;5054148;28;20056;-73
2023/05/25 01:51:21;;;;;;;8.55;4.97;;;7.40;99.90;;;;;;5038841;28;20468;-72
2023/05/25 01:53:57;;;;;;;9.85;4.72;;;7.40;99.90;;;;;;5072335;28;20029;-62
2023/05/25 01:56:26;;;;;;;10.52;5.25;;;7.40;99.90;;;;;;5067973;28;20104;-62
2023/05/25 01:58:53;;;;;;;9.75;5.05;;;7.50;99.90;;;;;;5072598;28;20084;-62
2023/05/25 02:01:19;;;;;;;14.07;5.13;;;7.50;99.90;;;;;;5045411;28;20029;-62
2023/05/25 02:03:50;;;;;;;9.07;4.85;;;7.50;99.90;;;;;;5067945;28;20032;-62
2023/05/25 02:06:16;;;;;;;9.07;4.97;;;7.50;99.90;;;;;;5072810;28;20024;-62
2023/05/25 02:08:42;;;;;;;11.20;5.10;;;7.50;99.90;;;;;;5057749;28;20366;-62
2023/05/25 02:11:09;;;;;;;9.88;4.80;;;7.60;99.90;;;;;;5052458;28;20021;-63
2023/05/25 02:13:35;;;;;;;10.95;5.55;;;7.50;99.90;;;;;;5065022;28;20525;-65
2023/05/25 02:16:01;;;;;;;11.68;5.13;;;7.50;99.90;;;;;;5071927;28;20146;-62
2023/05/25 02:18:27;;;;;;;13.65;5.38;;;7.50;99.90;;;;;;5062551;28;20469;-63
2023/05/25 02:20:52;;;;;;;11.50;6.05;;;7.40;99.90;;;;;;5051840;28;20466;-62
2023/05/25 02:23:18;;;;;;;8.27;4.90;;;7.40;99.90;;;;;;5034244;28;20048;-62
2023/05/25 02:25:44;;;;;;;10.20;4.53;;;7.40;99.90;;;;;;5034805;28;20017;-63
2023/05/25 02:28:09;;;;;;;10.25;4.35;;;7.30;99.90;;;;;;5045709;28;20130;-62
2023/05/25 02:30:35;;;;;;;8.43;4.40;;;7.20;99.90;;;;;;5053389;28;20424;-63
2023/05/25 02:33:01;;;;;;;9.40;4.57;;;7.10;99.90;;;;;;5071721;28;20084;-64
2023/05/25 02:35:26;;;;;;;9.35;4.05;;;7.10;99.90;;;;;;5072899;28;20043;-62
2023/05/25 02:37:52;;;;;;;11.52;4.35;;;7.00;99.90;;;;;;5062628;28;20033;-62
2023/05/25 02:40:18;;;;;;;9.70;4.53;;;6.90;99.90;;;;;;5074947;28;20031;-62
2023/05/25 02:42:43;;;;;;;11.07;4.63;;;6.90;99.90;;;;;;5071598;28;20119;-62
2023/05/25 02:45:10;;;;;;;9.95;4.60;;;6.90;99.90;;;;;;5072946;28;20479;-62
2023/05/25 02:47:35;;;;;;;9.98;4.28;;;6.90;99.90;;;;;;5057163;28;20119;-63
2023/05/25 02:50:02;;;;;;;7.10;4.20;;;6.90;99.90;;;;;;5072761;28;20108;-62
2023/05/25 02:52:29;;;;;;;10.43;5.05;;;6.90;99.90;;;;;;5059058;28;20063;-62
2023/05/25 02:54:55;;;;;;;8.73;4.65;;;6.90;99.90;;;;;;5075409;28;20431;-63
2023/05/25 02:57:22;;;;;;;8.10;4.95;;;6.90;99.90;;;;;;5056214;28;20025;-62
2023/05/25 02:59:48;;;;;;;8.98;4.68;;;6.90;99.90;;;;;;5074141;28;20040;-66
2023/05/25 03:02:17;;;;;;;9.45;4.65;;;6.90;99.90;;;;;;5067231;28;20312;-63
2023/05/25 03:04:48;;;;;;;8.25;4.32;;;6.80;99.90;;;;;;5048727;28;20397;-62
2023/05/25 03:07:14;;;;;;;10.38;4.47;;;6.80;99.90;;;;;;5069730;28;20211;-62
2023/05/25 03:09:40;;;;;;;9.63;4.65;;;6.70;99.90;;;;;;5062837;28;20079;-63
2023/05/25 03:12:05;;;;;;;8.88;4.95;;;6.70;99.90;;;;;;5073443;28;20073;-62
2023/05/25 03:14:31;;;;;;;10.63;4.95;;;6.70;99.90;;;;;;5073873;28;20069;-64
2023/05/25 03:16:57;;;;;;;9.52;5.35;;;6.70;99.90;;;;;;5073514;28;20103;-63
2023/05/25 03:19:23;;;;;;;9.15;4.88;;;6.70;99.90;;;;;;5074034;28;20039;-63
2023/05/25 03:21:48;;;;;;;10.27;5.15;;;6.70;99.90;;;;;;5074421;28;20032;-63
2023/05/25 03:24:14;;;;;;;9.07;5.03;;;6.80;99.90;;;;;;5074454;28;20032;-62
2023/05/25 03:26:39;;;;;;;13.00;6.25;;;6.80;99.90;;;;;;5069507;28;20032;-63
2023/05/25 03:29:08;;;;;;;11.82;5.60;;;6.80;99.90;;;;;;5057550;28;20037;-67
2023/05/25 03:31:33;;;;;;;12.82;5.72;;;6.80;99.90;;;;;;5071204;28;20421;-66
2023/05/25 03:33:59;;;;;;;13.45;5.78;;;6.90;99.90;;;;;;5057397;28;20514;-74
2023/05/25 03:36:29;;;;;;;10.40;5.20;;;6.80;99.90;;;;;;5061967;28;20038;-73
2023/05/25 03:38:55;;;;;;;8.63;5.07;;;6.90;99.90;;;;;;5069563;28;20021;-68
2023/05/25 03:41:21;;;;;;;10.30;5.38;;;6.90;99.90;;;;;;5055056;28;20524;-73
2023/05/25 03:43:46;;;;;;;9.52;5.38;;;6.90;99.90;;;;;;5067239;28;20094;-65
2023/05/25 03:46:12;;;;;;;9.45;5.43;;;6.90;99.90;;;;;;5056120;28;20418;-64
2023/05/25 03:48:37;;;;;;;13.32;5.85;;;7.00;99.90;;;;;;5037509;28;20025;-66
2023/05/25 03:51:03;;;;;;;9.00;4.97;;;7.00;99.90;;;;;;5055227;28;20482;-65
2023/05/25 03:53:29;;;;;;;10.35;5.65;;;7.00;99.90;;;;;;5054478;28;20035;-69
2023/05/25 03:55:55;;;;;;;9.95;5.43;;;7.00;99.90;;;;;;5055046;28;20017;-74
2023/05/25 03:58:21;;;;;;;9.07;5.10;;;7.10;99.90;;;;;;5054733;28;20082;-70
2023/05/25 04:00:48;;;;;;;9.95;5.50;;;7.10;99.90;;;;;;5062401;28;20017;-62
2023/05/25 04:03:14;;;;;;;9.15;5.25;;;7.10;99.90;;;;;;5054616;28;20108;-62
2023/05/25 04:05:40;;;;;;;9.73;5.60;;;7.10;99.90;;;;;;5057693;28;20044;-62
2023/05/25 04:08:07;;;;;;;11.32;5.28;;;7.20;99.90;;;;;;5073840;28;20070;-62
2023/05/25 04:10:33;;;;;;;12.50;5.30;;;7.20;99.90;;;;;;5074707;28;20020;-63
2023/05/25 04:13:00;;;;;;;10.05;4.93;;;7.20;99.90;;;;;;5067368;28;20120;-62
2023/05/25 04:15:26;;;;;;;8.57;5.43;;;7.20;99.90;;;;;;5054100;28;20021;-62
2023/05/25 04:17:51;;;;;;;12.35;5.25;;;7.20;99.90;;;;;;5067393;28;20025;-61
2023/05/25 04:20:17;;;;;;;7.72;4.55;;;7.20;99.90;;;;;;5059771;28;20020;-62
2023/05/25 04:22:43;;;;;;;8.18;4.43;;;7.30;99.90;;;;;;5071555;28;20041;-62
2023/05/25 04:25:09;;;;;;;9.98;4.95;;;7.30;99.90;;;;;;5056219;28;20032;-62
2023/05/25 04:27:35;;;;;;;11.60;5.22;;;7.30;99.90;;;;;;5059941;28;20448;-62
2023/05/25 04:30:02;;;;;;;9.05;4.60;;;7.20;99.90;;;;;;5066381;28;20020;-62
2023/05/25 04:32:30;;;;;;;14.07;5.35;;;7.20;99.90;;;;;;5073094;28;20485;-62
2023/05/25 04:34:57;;;;;;;9.50;5.55;;;7.30;99.90;;;;;;5064588;28;20108;-63
2023/05/25 04:37:26;;;;;;;11.60;5.47;;;7.30;99.90;;;;;;5071679;28;20028;-62
2023/05/25 04:39:52;;;;;;;13.55;5.72;;;7.30;99.90;;;;;;5071621;28;20138;-62
2023/05/25 04:42:18;;;;;;;8.50;5.10;;;7.40;99.90;;;;;;5055732;28;20028;-62
2023/05/25 04:44:43;;;;;;;9.80;5.10;;;7.40;99.90;;;;;;5057225;28;20021;-62
2023/05/25 04:47:09;;;;;;;9.45;5.07;;;7.50;99.90;;;;;;5053871;28;20024;-62
2023/05/25 04:49:35;;;;;;;12.63;4.90;;;7.60;99.90;;;;;;5053204;28;20067;-62
2023/05/25 04:52:01;;;;;;;12.10;6.00;;;7.60;99.90;;;;;;5058805;28;20025;-63
2023/05/25 04:54:26;;;;;;;14.25;5.78;;;7.70;99.90;;;;;;5035754;28;20025;-63
2023/05/25 04:56:52;;;;;;;8.77;6.05;;;7.80;99.90;;;;;;5061621;28;20017;-67
2023/05/25 04:59:18;;;;;;;12.85;5.82;;;7.80;99.90;;;;;;5063013;28;20045;-64
2023/05/25 05:01:44;;;;;;;10.77;5.68;;;7.90;99.90;;;;;;5065726;28;20021;-62
2023/05/25 05:04:10;;;;;;;10.90;5.70;;;7.90;99.90;;;;;;5067348;28;20033;-65
2023/05/25 05:06:36;;;;;;;9.73;5.53;;;8.00;99.90;;;;;;5073710;28;20012;-63
2023/05/25 05:09:02;;;;;;;13.32;6.03;;;8.10;99.90;;;;;;5060694;28;20339;-63
2023/05/25 05:11:28;;;;;;;21.25;7.80;;;8.20;99.90;;;;;;5072514;28;20052;-63
2023/05/25 05:13:54;;;;;;;13.18;6.50;;;8.20;99.90;;;;;;5072927;28;20066;-63
2023/05/25 05:16:20;;;;;;;14.60;7.03;;;8.40;99.90;;;;;;5067151;28;20104;-63
2023/05/25 05:18:45;;;;;;;18.52;7.47;;;8.50;99.90;;;;;;5060663;28;20124;-63
2023/05/25 05:21:11;;;;;;;11.95;5.55;;;8.70;99.90;;;;;;5052912;28;20025;-63
2023/05/25 05:23:37;;;;;;;12.60;7.15;;;8.90;99.90;;;;;;5053327;28;20063;-67
2023/05/25 05:26:03;;;;;;;13.00;6.22;;;9.10;99.90;;;;;;5059484;28;20443;-62
2023/05/25 05:28:30;;;;;;;12.88;6.50;;;9.20;99.90;;;;;;5065437;28;20093;-71
2023/05/25 05:30:56;;;;;;;17.48;7.63;;;9.40;99.90;;;;;;5054666;28;20039;-72
2023/05/25 05:33:24;;;;;;;14.80;7.63;;;9.60;99.90;;;;;;5057201;28;20025;-74
2023/05/25 05:35:51;;;;;;;14.52;7.32;;;9.70;99.90;;;;;;5060084;28;20033;-73
2023/05/25 05:38:17;;;;;;;13.38;7.28;;;9.80;99.90;;;;;;5072378;28;20021;-70
2023/05/25 05:40:43;;;;;;;13.20;6.90;;;9.80;99.90;;;;;;5066624;28;20017;-73
2023/05/25 05:43:11;;;;;;;16.70;7.78;;;9.90;99.90;;;;;;5050068;28;20036;-67
2023/05/25 05:45:36;;;;;;;17.08;6.57;;;9.90;99.90;;;;;;5060742;28;20066;-72
2023/05/25 05:48:03;;;;;;;11.93;5.97;;;10.00;99.90;;;;;;5070362;28;20032;-71
2023/05/25 05:50:29;;;;;;;15.52;6.38;;;10.00;99.90;;;;;;5053825;28;20024;-72
2023/05/25 05:52:55;;;;;;;13.98;6.70;;;10.00;99.90;;;;;;5071600;28;20538;-73
2023/05/25 05:55:21;;;;;;;16.60;7.00;;;10.10;99.90;;;;;;5054038;28;20024;-72
2023/05/25 05:57:46;;;;;;;13.18;7.38;;;10.20;99.90;;;;;;5047807;28;20064;-71
2023/05/25 06:00:13;;;;;;;10.43;6.35;;;10.30;99.90;;;;;;5068261;28;20047;-71
2023/05/25 06:02:39;;;;;;;14.45;5.97;;;10.50;99.90;;;;;;5054268;28;20064;-71
2023/05/25 06:05:05;;;;;;;19.23;6.82;;;10.50;99.90;;;;;;5066963;28;20121;-62
2023/05/25 06:07:33;;;;;;;20.45;6.65;;;10.60;99.90;;;;;;5071315;28;20496;-62
2023/05/25 06:09:59;;;;;;;14.98;6.88;;;10.70;99.90;;;;;;5064939;28;20110;-62
2023/05/25 06:12:25;;;;;;;13.05;6.80;;;10.70;99.90;;;;;;5075995;28;20476;-61
2023/05/25 06:14:51;;;;;;;12.63;5.82;;;10.80;99.90;;;;;;5074963;28;20111;-61
2023/05/25 06:17:16;;;;;;;15.00;6.97;;;11.00;99.90;;;;;;5058640;28;20502;-63
2023/05/25 06:19:42;;;;;;;14.05;7.20;;;11.10;99.90;;;;;;5071708;28;20392;-62
2023/05/25 06:22:07;;;;;;;14.43;6.70;;;11.30;99.90;;;;;;5073953;28;20036;-62
2023/05/25 06:24:33;;;;;;;12.35;6.60;;;11.40;99.90;;;;;;5076484;28;20029;-62
2023/05/25 06:26:59;;;;;;;14.60;6.13;;;11.50;99.90;;;;;;5069690;28;20028;-61
2023/05/25 06:29:24;;;;;;;13.13;5.90;;;11.70;99.90;;;;;;5049243;28;20485;-62
2023/05/25 06:31:50;;;;;;;15.15;6.88;;;11.90;99.90;;;;;;5065876;28;20075;-62
2023/05/25 06:34:15;;;;;;;14.13;7.13;;;12.00;99.90;;;;;;5059849;28;20585;-62
2023/05/25 06:36:41;;;;;;;14.80;6.80;;;12.10;99.90;;;;;;5060466;28;20028;-61
2023/05/25 06:39:06;;;;;;;17.63;7.05;;;12.20;99.90;;;;;;5075556;28;20056;-61
2023/05/25 06:41:32;;;;;;;17.50;8.00;;;12.40;99.90;;;;;;5054463;28;20461;-63
2023/05/25 06:43:58;;;;;;;14.75;6.40;;;12.50;99.90;;;;;;5066409;28;20032;-62
2023/05/25 06:46:23;;;;;;;12.88;6.35;;;12.60;99.90;;;;;;5065275;28;20016;-61
2023/05/25 06:48:49;;;;;;;18.02;7.05;;;12.70;99.90;;;;;;5065039;28;20032;-62
2023/05/25 06:51:15;;;;;;;14.32;7.57;;;12.90;99.90;;;;;;5066550;28;20108;-62
2023/05/25 06:53:42;;;;;;;12.95;7.13;;;13.00;99.90;;;;;;5070207;28;20028;-62
2023/05/25 06:56:08;;;;;;;17.92;7.25;;;13.00;99.90;;;;;;5055360;28;20032;-64
2023/05/25 06:58:33;;;;;;;15.95;7.90;;;13.00;99.90;;;;;;5070593;28;20028;-61
2023/05/25 07:00:59;;;;;;;14.70;6.90;;;13.00;99.90;;;;;;5068242;28;20049;-64
2023/05/25 07:03:25;;;;;;;21.80;7.15;;;13.10;99.90;;;;;;5058378;28;20065;-63
2023/05/25 07:05:51;;;;;;;17.00;7.75;;;13.10;99.90;;;;;;5063198;28;20020;-62
2023/05/25 07:08:16;;;;;;;17.92;8.07;;;13.20;99.90;;;;;;5068436;28;20119;-62
2023/05/25 07:10:42;;;;;;;11.70;6.47;;;13.30;99.90;;;;;;5073380;28;20033;-62
2023/05/25 07:13:09;;;;;;;15.82;6.50;;;13.40;99.90;;;;;;5072676;28;20454;-63
2023/05/25 07:15:34;;;;;;;14.02;7.45;;;13.50;99.90;;;;;;5074759;28;20028;-64
2023/05/25 07:18:00;;;;;;;13.98;7.32;;;13.50;99.90;;;;;;5073999;28;20358;-65
2023/05/25 07:20:26;;;;;;;13.73;7.70;;;13.60;99.90;;;;;;5060494;28;20070;-62
2023/05/25 07:22:52;;;;;;;12.38;6.53;;;13.70;99.90;;;;;;5060061;28;20044;-71
2023/05/25 07:25:18;;;;;;;15.07;7.10;;;13.70;99.90;;;;;;5056663;28;20416;-70
2023/05/25 07:27:47;;;;;;;12.90;6.38;;;13.80;99.90;;;;;;5074443;28;20020;-70
2023/05/25 07:30:13;;;;;;;13.50;6.55;;;13.90;99.90;;;;;;5055194;28;20031;-72
2023/05/25 07:32:39;;;;;;;14.68;6.65;;;14.00;99.90;;;;;;5068807;28;20037;-70
2023/05/25 07:35:05;;;;;;;13.38;6.72;;;14.00;99.90;;;;;;5060298;28;20031;-63
2023/05/25 07:37:31;;;;;;;16.13;7.07;;;14.10;99.90;;;;;;5066755;28;20028;-62
2023/05/25 07:39:57;;;;;;;12.68;6.68;;;14.10;99.90;;;;;;5066886;28;20590;-70
2023/05/25 07:42:22;;;;;;;13.60;5.97;;;14.10;99.90;;;;;;5074741;28;20428;-70
2023/05/25 07:44:48;;;;;;;15.02;6.80;;;14.20;99.90;;;;;;5056668;28;20035;-72
2023/05/25 07:47:13;;;;;;;15.93;6.43;;;14.20;99.90;;;;;;5075097;28;20145;-71
2023/05/25 07:49:39;;;;;;;12.15;7.03;;;14.20;99.90;;;;;;5065044;28;20028;-67
2023/05/25 07:52:05;;;;;;;15.85;6.60;;;14.20;99.90;;;;;;5074736;28;20060;-68
2023/05/25 07:54:31;;;;;;;15.18;6.43;;;14.30;99.90;;;;;;5056130;28;20044;-68
2023/05/25 07:56:56;;;;;;;16.92;7.82;;;14.50;99.90;;;;;;5075038;28;20021;-69
2023/05/25 07:59:22;;;;;;;15.07;6.38;;;14.70;99.90;;;;;;5067829;28;20493;-69
2023/05/25 08:01:48;;;;;;;14.02;6.20;;;14.90;99.90;;;;;;5065678;28;20035;-69
2023/05/25 08:04:13;;;;;;;13.25;6.32;;;15.10;99.90;;;;;;5071183;28;20035;-72
2023/05/25 08:06:39;;;;;;;11.93;6.05;;;15.30;99.90;;;;;;5062467;28;20435;-69
2023/05/25 08:09:06;;;;;;;15.68;6.43;;;15.40;99.90;;;;;;5054735;28;20033;-63
2023/05/25 08:11:32;;;;;;;13.20;5.78;;;15.50;99.90;;;;;;5069183;28;20388;-65
2023/05/25 08:13:58;;;;;;;15.43;5.55;;;15.60;99.90;;;;;;5073124;28;20076;-63
2023/05/25 08:16:24;;;;;;;13.40;5.22;;;15.70;99.90;;;;;;5071218;28;20023;-61
2023/05/25 08:18:51;;;;;;;11.30;5.72;;;15.70;99.90;;;;;;5074359;28;20028;-65
2023/05/25 08:21:16;;;;;;;13.18;5.70;;;15.60;99.90;;;;;;5072750;28;20020;-64
2023/05/25 08:23:42;;;;;;;14.02;5.82;;;15.60;99.90;;;;;;5073171;28;20040;-63
2023/05/25 08:26:09;;;;;;;12.23;4.95;;;15.50;99.90;;;;;;5073469;28;20020;-64
2023/05/25 08:28:35;;;;;;;10.00;4.43;;;15.40;99.90;;;;;;5071647;28;20020;-65
2023/05/25 08:31:01;;;;;;;14.27;5.10;;;15.40;99.90;;;;;;5074123;28;20017;-64
2023/05/25 08:33:27;;;;;;;14.48;5.20;;;15.40;99.90;;;;;;5072563;28;20378;-63
2023/05/25 08:35:53;;;;;;;11.13;4.90;;;15.50;99.90;;;;;;5072898;28;20703;-63
2023/05/25 08:38:23;;;;;;;10.20;5.63;;;15.60;99.90;;;;;;5071053;28;20028;-62
2023/05/25 08:41:05;;;;;;;13.05;6.32;;;15.70;99.90;;;;;;5071335;28;20456;-64
2023/05/25 08:43:32;;;;;;;16.17;6.05;;;15.80;99.90;;;;;;5065724;28;20173;-63
2023/05/25 08:46:03;;;;;;;8.88;5.30;;;15.80;99.90;;;;;;5068839;28;20351;-64
2023/05/25 08:48:31;;;;;;;12.32;5.22;;;15.90;99.90;;;;;;5069505;28;20508;-61
2023/05/25 08:51:05;;;;;;;10.60;5.22;;;16.00;99.90;;;;;;5073324;28;20103;-63
2023/05/25 08:53:42;;;;;;;14.07;5.53;;;15.90;99.90;;;;;;5051765;28;20549;-63
2023/05/25 08:56:25;;;;;;;11.73;4.32;;;15.90;99.90;;;;;;5052977;28;20058;-63
2023/05/25 08:59:21;;;;;;;11.07;5.10;;;15.70;99.90;;;;;;5065426;28;20082;-64
2023/05/25 09:01:52;;;;;;;17.73;5.60;;;15.70;99.90;;;;;;5052786;28;20028;-64
2023/05/25 09:04:19;;;;;;;10.50;5.28;;;15.70;99.90;;;;;;5069703;28;20127;-63
2023/05/25 09:06:47;;;;;;;10.30;5.20;;;15.80;99.90;;;;;;5064166;28;20029;-64
2023/05/25 09:09:13;;;;;;;12.93;5.25;;;15.90;99.90;;;;;;5050262;28;20059;-67
2023/05/25 09:11:40;;;;;;;10.18;5.05;;;16.00;99.90;;;;;;5069325;28;20020;-64
2023/05/25 09:14:06;;;;;;;10.90;4.72;;;16.20;99.90;;;;;;5065157;28;20420;-67
2023/05/25 09:16:33;;;;;;;10.68;4.63;;;16.20;99.90;;;;;;5064846;28;20016;-64
2023/05/25 09:18:58;;;;;;;8.52;3.97;;;16.30;99.90;;;;;;5050736;28;20363;-66
2023/05/25 09:21:25;;;;;;;13.43;4.68;;;16.30;99.90;;;;;;5039503;28;20115;-67
2023/05/25 09:23:50;;;;;;;12.70;5.55;;;16.20;99.90;;;;;;5035161;28;20029;-68
2023/05/25 09:26:16;;;;;;;9.93;4.80;;;16.30;99.90;;;;;;5035383;28;20403;-68
2023/05/25 09:28:46;;;;;;;13.35;4.47;;;16.40;99.90;;;;;;5053309;28;20028;-67
2023/05/25 09:31:13;;;;;;;16.27;5.20;;;16.60;99.90;;;;;;5034803;28;20079;-64
2023/05/25 09:33:39;;;;;;;11.57;5.07;;;16.80;99.90;;;;;;5036218;28;20536;-69
2023/05/25 09:36:06;;;;;;;10.52;4.72;;;16.90;99.90;;;;;;5053169;28;20108;-64
2023/05/25 09:38:31;;;;;;;8.55;4.20;;;16.90;99.90;;;;;;5037526;28;20032;-66
2023/05/25 09:40:58;;;;;;;9.73;3.83;;;16.70;99.90;;;;;;5062283;28;20028;-69
2023/05/25 09:43:23;;;;;;;11.25;4.38;;;16.70;99.90;;;;;;5064228;28;20029;-69
2023/05/25 09:45:51;;;;;;;7.50;3.45;;;16.60;99.90;;;;;;5071549;28;20408;-67
2023/05/25 09:48:17;;;;;;;6.13;3.67;;;16.50;99.90;;;;;;5068609;28;20032;-65
2023/05/25 09:50:43;;;;;;;10.57;3.40;;;16.40;99.90;;;;;;5069682;28;20027;-65
2023/05/25 09:53:10;;;;;;;9.57;4.00;;;16.40;99.90;;;;;;5056733;28;20064;-71
2023/05/25 09:55:36;;;;;;;7.97;3.70;;;16.40;99.90;;;;;;5063833;28;20024;-74
2023/05/25 09:58:02;;;;;;;8.70;3.53;;;16.50;99.90;;;;;;5052382;28;20025;-76
2023/05/25 10:00:27;;;;;;;9.48;3.70;;;16.60;99.90;;;;;;5052374;28;20136;-79
2023/05/25 10:02:53;;;;;;;7.15;3.38;;;16.80;99.90;;;;;;5054128;28;20106;-77
2023/05/25 10:05:19;;;;;;;8.43;3.33;;;17.10;99.90;;;;;;5063285;28;20075;-78
2023/05/25 10:07:45;;;;;;;7.28;3.85;;;17.30;99.90;;;;;;5054657;28;20028;-79
2023/05/25 10:10:15;;;;;;;5.95;2.90;;;17.40;99.20;;;;;;5072913;28;20104;-69
2023/05/25 10:12:43;;;;;;;5.38;3.08;;;17.40;98.70;;;;;;5072517;28;20029;-68
2023/05/25 10:15:11;;;;;;;6.65;2.75;;;17.50;98.80;;;;;;5072665;28;20028;-68
2023/05/25 10:17:44;;;;;;;7.30;2.70;;;17.50;97.40;;;;;;5052929;28;20477;-68
2023/05/25 10:20:12;;;;;;;7.18;3.13;;;17.40;96.60;;;;;;5069668;28;20029;-66
2023/05/25 10:23:08;;;;;;;6.25;2.53;;;17.30;97.10;;;;;;5061240;28;20091;-68
2023/05/25 10:25:42;;;;;;;9.90;2.60;;;17.30;97.30;;;;;;5054251;28;20111;-66
2023/05/25 10:28:28;;;;;;;6.95;2.67;;;17.30;97.80;;;;;;5071993;28;20016;-66
2023/05/25 10:30:58;;;;;;;4.57;2.70;;;17.30;97.20;;;;;;5069306;28;20396;-65
2023/05/25 10:33:24;;;;;;;4.93;2.55;;;17.40;97.00;;;;;;5072020;28;20016;-65
2023/05/25 10:35:52;;;;;;;8.00;2.90;;;17.50;96.50;;;;;;5072593;28;20062;-66
2023/05/25 10:38:18;;;;;;;5.20;2.80;;;17.50;96.40;;;;;;5071545;28;20029;-66
2023/05/25 10:40:50;;;;;;;4.47;2.33;;;17.60;95.70;;;;;;5068370;28;20124;-67
2023/05/25 10:43:17;;;;;;;7.15;2.70;;;17.50;94.90;;;;;;5071982;28;20370;-68
2023/05/25 10:45:43;;;;;;;8.27;2.83;;;17.50;94.80;;;;;;5072102;28;20100;-68
2023/05/25 10:48:09;;;;;;;8.15;2.53;;;17.40;95.30;;;;;;5071981;28;20450;-70
2023/05/25 10:50:36;;;;;;;8.60;2.53;;;17.40;95.30;;;;;;5072371;28;20028;-69
2023/05/25 10:53:04;;;;;;;5.05;2.35;;;17.50;95.50;;;;;;5070655;28;20031;-68
2023/05/25 10:55:52;;;;;;;7.53;2.92;;;17.60;96.00;;;;;;5056901;28;20025;-68
2023/05/25 10:58:19;;;;;;;5.70;2.40;;;17.70;94.70;;;;;;5055545;28;20108;-69
2023/05/25 11:01:07;;;;;;;3.83;2.38;;;17.70;94.20;;;;;;5055778;28;20052;-69
2023/05/25 11:03:57;;;;;;;8.68;3.50;;;17.80;94.30;;;;;;5055360;28;20037;-68
2023/05/25 11:06:42;;;;;;;6.18;2.40;;;17.90;93.00;;;;;;5055924;28;20025;-71
2023/05/25 11:09:23;;;;;;;6.22;2.30;;;18.00;93.00;;;;;;5037853;28;20024;-71
2023/05/25 11:11:49;;;;;;;5.17;2.43;;;18.10;91.50;;;;;;5055754;28;20385;-70
2023/05/25 11:14:29;;;;;;;8.43;2.88;;;18.00;91.20;;;;;;5037876;28;20029;-72
2023/05/25 11:17:13;;;;;;;6.03;2.33;;;18.10;91.20;;;;;;5037077;28;20037;-70
2023/05/25 11:19:49;;;;;;;8.10;2.72;;;18.20;90.00;;;;;;5055639;28;20039;-69
2023/05/25 11:22:16;;;;;;;6.03;2.55;;;18.10;90.10;;;;;;5059793;28;20067;-71
2023/05/25 11:24:45;;;;;;;5.63;2.55;;;18.10;90.20;;;;;;5037087;28;20032;-76
2023/05/25 11:27:11;;;;;;;8.95;2.50;;;18.10;90.30;;;;;;5037333;28;20066;-76
2023/05/25 11:29:38;;;;;;;8.35;2.78;;;18.10;90.10;;;;;;5054734;28;20039;-76
2023/05/25 11:32:10;;;;;;;5.00;2.25;;;18.20;89.60;;;;;;5037834;28;20056;-74
2023/05/25 11:34:35;;;;;;;9.32;2.90;;;18.30;88.00;;;;;;5055536;28;20079;-75
2023/05/25 11:37:02;;;;;;;7.03;2.53;;;18.40;87.30;;;;;;5054872;28;20448;-75
2023/05/25 11:39:28;;;;;;;7.22;2.53;;;18.30;85.50;;;;;;5054908;28;20021;-76
2023/05/25 11:41:55;;;;;;;10.77;2.75;;;18.20;85.10;;;;;;5042936;28;20036;-74
2023/05/25 11:44:40;;;;;;;6.68;2.63;;;18.20;84.40;;;;;;5054285;28;20538;-75
2023/05/25 11:47:07;;;;;;;11.57;3.00;;;18.40;85.00;;;;;;5055372;28;20135;-76
2023/05/25 11:49:37;;;;;;;6.38;2.47;;;18.60;83.90;;;;;;5054908;28;20024;-73
2023/05/25 11:52:07;;;;;;;5.05;2.40;;;18.70;83.30;;;;;;5054789;28;20047;-75
2023/05/25 11:54:33;;;;;;;6.95;2.97;;;18.90;84.20;;;;;;5036928;28;20068;-76
2023/05/25 11:57:00;;;;;;;7.15;2.20;;;19.10;85.60;;;;;;5055269;28;20033;-74
2023/05/25 11:59:27;;;;;;;4.15;2.13;;;19.10;84.00;;;;;;5054492;28;20107;-74
2023/05/25 12:01:56;;;;;;;6.10;2.15;;;19.00;80.40;;;;;;5054911;28;20092;-74
2023/05/25 12:04:21;;;;;;;5.03;2.42;;;18.90;80.70;;;;;;5054516;28;20370;-75
2023/05/25 12:06:48;;;;;;;4.88;2.20;;;18.80;80.80;;;;;;5036467;28;20139;-75
2023/05/25 12:09:19;;;;;;;6.80;2.45;;;18.80;82.10;;;;;;5054710;28;20116;-75
2023/05/25 12:11:45;;;;;;;6.82;2.40;;;19.00;81.00;;;;;;5054003;28;20021;-75
2023/05/25 12:14:11;;;;;;;9.23;2.70;;;19.10;79.80;;;;;;5054874;28;20025;-69
2023/05/25 12:16:40;;;;;;;10.73;3.03;;;19.10;80.30;;;;;;5036405;28;20051;-69
2023/05/25 12:19:10;;;;;;;8.85;2.70;;;18.90;79.90;;;;;;5050735;28;20066;-68
2023/05/25 12:21:37;;;;;;;9.07;2.55;;;18.70;80.80;;;;;;5056242;28;20078;-69
2023/05/25 12:24:04;;;;;;;6.72;2.67;;;18.70;81.10;;;;;;5074429;28;20032;-71
2023/05/25 12:26:30;;;;;;;7.75;2.45;;;18.70;81.80;;;;;;5073484;28;20342;-72
2023/05/25 12:29:08;;;;;;;7.60;2.63;;;18.90;82.20;;;;;;5074044;28;20035;-69
2023/05/25 12:31:37;;;;;;;8.18;3.53;;;19.10;80.40;;;;;;5074456;28;20052;-68
2023/05/25 12:34:07;;;;;;;8.45;2.70;;;19.10;80.10;;;;;;5073597;28;20117;-69
2023/05/25 12:36:47;;;;;;;7.35;3.13;;;19.20;80.30;;;;;;5074466;28;20017;-68
2023/05/25 12:39:14;;;;;;;8.30;2.70;;;19.40;79.40;;;;;;5073760;28;20021;-70
2023/05/25 12:41:48;;;;;;;7.00;2.92;;;19.40;76.90;;;;;;5073233;28;20095;-68
2023/05/25 12:44:18;;;;;;;9.00;3.30;;;19.20;77.30;;;;;;5073875;28;20056;-72
2023/05/25 12:46:44;;;;;;;8.50;2.70;;;19.10;76.40;;;;;;5074154;28;20067;-69
2023/05/25 12:49:24;;;;;;;7.90;2.92;;;19.00;77.20;;;;;;5073077;28;20028;-69